sensor_id;sensor_type;location;lat;lon;timestamp;P1;durP1;ratioP1;P2;durP2;ratioP2
20635;SDS011;10477;43.198;27.916;2022-08-21T00:00:56;96.57;;;88.20;;
20635;SDS011;10477;43.198;27.916;2022-08-21T00:03:25;92.15;;;83.90;;
20635;SDS011;10477;43.198;27.916;2022-08-21T00:05:53;89.52;;;81.55;;
20635;SDS011;10477;43.198;27.916;2022-08-21T00:08:21;93.33;;;85.03;;
20635;SDS011;10477;43.198;27.916;2022-08-21T00:10:50;88.97;;;80.77;;
20635;SDS011;10477;43.198;27.916;2022-08-21T00:13:18;93.15;;;84.75;;
20635;SDS011;10477;43.198;27.916;2022-08-21T00:18:15;91.25;;;82.85;;
20635;SDS011;10477;43.198;27.916;2022-08-21T00:20:43;92.17;;;83.67;;
20635;SDS011;10477;43.198;27.916;2022-08-21T00:23:12;97.67;;;88.82;;
20635;SDS011;10477;43.198;27.916;2022-08-21T00:25:41;94.85;;;86.15;;
20635;SDS011;10477;43.198;27.916;2022-08-21T00:28:10;90.50;;;82.20;;
20635;SDS011;10477;43.198;27.916;2022-08-21T00:30:39;93.72;;;85.20;;
20635;SDS011;10477;43.198;27.916;2022-08-21T00:33:08;93.10;;;84.67;;
20635;SDS011;10477;43.198;27.916;2022-08-21T00:35:37;92.92;;;84.60;;
20635;SDS011;10477;43.198;27.916;2022-08-21T00:38:07;97.02;;;88.58;;
20635;SDS011;10477;43.198;27.916;2022-08-21T00:40:38;96.10;;;87.62;;
20635;SDS011;10477;43.198;27.916;2022-08-21T00:43:07;98.15;;;89.55;;
20635;SDS011;10477;43.198;27.916;2022-08-21T00:45:38;99.00;;;90.50;;
20635;SDS011;10477;43.198;27.916;2022-08-21T00:48:06;97.65;;;89.45;;
20635;SDS011;10477;43.198;27.916;2022-08-21T00:50:35;98.03;;;89.83;;
20635;SDS011;10477;43.198;27.916;2022-08-21T00:53:05;98.90;;;90.60;;
20635;SDS011;10477;43.198;27.916;2022-08-21T00:55:34;99.90;;;91.50;;
20635;SDS011;10477;43.198;27.916;2022-08-21T00:58:04;100.95;;;92.45;;
20635;SDS011;10477;43.198;27.916;2022-08-21T01:00:35;99.70;;;91.30;;
20635;SDS011;10477;43.198;27.916;2022-08-21T01:03:10;97.02;;;88.82;;
20635;SDS011;10477;43.198;27.916;2022-08-21T01:05:35;98.22;;;89.52;;
20635;SDS011;10477;43.198;27.916;2022-08-21T01:08:03;94.80;;;86.53;;
20635;SDS011;10477;43.198;27.916;2022-08-21T01:10:33;97.27;;;88.58;;
20635;SDS011;10477;43.198;27.916;2022-08-21T01:13:03;93.07;;;84.52;;
20635;SDS011;10477;43.198;27.916;2022-08-21T01:15:34;96.40;;;87.60;;
20635;SDS011;10477;43.198;27.916;2022-08-21T01:18:05;98.58;;;89.70;;
20635;SDS011;10477;43.198;27.916;2022-08-21T01:20:35;99.07;;;89.95;;
20635;SDS011;10477;43.198;27.916;2022-08-21T01:23:05;99.65;;;90.45;;
20635;SDS011;10477;43.198;27.916;2022-08-21T01:25:34;95.72;;;86.92;;
20635;SDS011;10477;43.198;27.916;2022-08-21T01:28:04;99.05;;;89.85;;
20635;SDS011;10477;43.198;27.916;2022-08-21T01:30:35;97.53;;;88.42;;
20635;SDS011;10477;43.198;27.916;2022-08-21T01:33:04;99.15;;;89.97;;
20635;SDS011;10477;43.198;27.916;2022-08-21T01:35:34;97.35;;;88.35;;
20635;SDS011;10477;43.198;27.916;2022-08-21T01:38:01;97.90;;;88.80;;
20635;SDS011;10477;43.198;27.916;2022-08-21T01:40:29;95.90;;;87.10;;
20635;SDS011;10477;43.198;27.916;2022-08-21T01:42:57;96.85;;;88.15;;
20635;SDS011;10477;43.198;27.916;2022-08-21T01:45:26;93.35;;;84.75;;
20635;SDS011;10477;43.198;27.916;2022-08-21T01:47:53;92.22;;;83.72;;
20635;SDS011;10477;43.198;27.916;2022-08-21T01:50:21;95.30;;;86.50;;
20635;SDS011;10477;43.198;27.916;2022-08-21T01:52:50;96.20;;;87.30;;
20635;SDS011;10477;43.198;27.916;2022-08-21T01:55:18;92.78;;;84.07;;
20635;SDS011;10477;43.198;27.916;2022-08-21T01:57:47;93.90;;;85.15;;
20635;SDS011;10477;43.198;27.916;2022-08-21T02:00:17;94.60;;;85.90;;
20635;SDS011;10477;43.198;27.916;2022-08-21T02:02:48;93.37;;;84.67;;
20635;SDS011;10477;43.198;27.916;2022-08-21T02:05:18;92.67;;;83.95;;
20635;SDS011;10477;43.198;27.916;2022-08-21T02:07:47;89.07;;;80.57;;
20635;SDS011;10477;43.198;27.916;2022-08-21T02:10:18;91.80;;;83.10;;
20635;SDS011;10477;43.198;27.916;2022-08-21T02:12:47;92.47;;;83.78;;
20635;SDS011;10477;43.198;27.916;2022-08-21T02:15:17;91.28;;;82.67;;
20635;SDS011;10477;43.198;27.916;2022-08-21T02:17:46;93.47;;;84.77;;
20635;SDS011;10477;43.198;27.916;2022-08-21T02:20:20;95.65;;;86.95;;
20635;SDS011;10477;43.198;27.916;2022-08-21T02:22:46;97.60;;;88.80;;
20635;SDS011;10477;43.198;27.916;2022-08-21T02:25:15;93.97;;;85.38;;
20635;SDS011;10477;43.198;27.916;2022-08-21T02:27:45;94.35;;;85.77;;
20635;SDS011;10477;43.198;27.916;2022-08-21T02:30:14;93.50;;;84.87;;
20635;SDS011;10477;43.198;27.916;2022-08-21T02:32:44;89.05;;;80.75;;
20635;SDS011;10477;43.198;27.916;2022-08-21T02:35:13;93.37;;;84.80;;
20635;SDS011;10477;43.198;27.916;2022-08-21T02:37:48;97.62;;;88.65;;
20635;SDS011;10477;43.198;27.916;2022-08-21T02:40:12;95.97;;;87.15;;
20635;SDS011;10477;43.198;27.916;2022-08-21T02:42:42;97.85;;;88.85;;
20635;SDS011;10477;43.198;27.916;2022-08-21T02:45:10;97.82;;;88.90;;
20635;SDS011;10477;43.198;27.916;2022-08-21T02:47:39;98.03;;;89.05;;
20635;SDS011;10477;43.198;27.916;2022-08-21T02:50:08;97.47;;;88.47;;
20635;SDS011;10477;43.198;27.916;2022-08-21T02:52:37;102.60;;;93.33;;
20635;SDS011;10477;43.198;27.916;2022-08-21T02:55:06;100.53;;;91.55;;
20635;SDS011;10477;43.198;27.916;2022-08-21T02:57:33;100.02;;;91.02;;
20635;SDS011;10477;43.198;27.916;2022-08-21T03:00:01;100.92;;;92.10;;
20635;SDS011;10477;43.198;27.916;2022-08-21T03:02:30;100.05;;;91.35;;
20635;SDS011;10477;43.198;27.916;2022-08-21T03:04:58;100.10;;;91.40;;
20635;SDS011;10477;43.198;27.916;2022-08-21T03:07:27;97.57;;;88.90;;
20635;SDS011;10477;43.198;27.916;2022-08-21T03:09:54;98.42;;;89.65;;
20635;SDS011;10477;43.198;27.916;2022-08-21T03:12:22;98.22;;;89.32;;
20635;SDS011;10477;43.198;27.916;2022-08-21T03:14:50;99.97;;;90.97;;
20635;SDS011;10477;43.198;27.916;2022-08-21T03:17:18;96.40;;;87.62;;
20635;SDS011;10477;43.198;27.916;2022-08-21T03:19:46;97.70;;;88.78;;
20635;SDS011;10477;43.198;27.916;2022-08-21T03:22:13;99.47;;;90.47;;
20635;SDS011;10477;43.198;27.916;2022-08-21T03:24:41;103.80;;;94.55;;
20635;SDS011;10477;43.198;27.916;2022-08-21T03:27:09;101.10;;;91.80;;
20635;SDS011;10477;43.198;27.916;2022-08-21T03:29:38;100.15;;;90.85;;
20635;SDS011;10477;43.198;27.916;2022-08-21T03:32:06;103.30;;;93.70;;
20635;SDS011;10477;43.198;27.916;2022-08-21T03:34:37;99.50;;;90.30;;
20635;SDS011;10477;43.198;27.916;2022-08-21T03:37:06;99.45;;;90.25;;
20635;SDS011;10477;43.198;27.916;2022-08-21T03:39:35;96.28;;;87.37;;
20635;SDS011;10477;43.198;27.916;2022-08-21T03:42:03;100.00;;;90.80;;
20635;SDS011;10477;43.198;27.916;2022-08-21T03:44:32;97.15;;;88.30;;
20635;SDS011;10477;43.198;27.916;2022-08-21T03:47:00;97.47;;;88.78;;
20635;SDS011;10477;43.198;27.916;2022-08-21T03:49:28;96.90;;;88.35;;
20635;SDS011;10477;43.198;27.916;2022-08-21T03:51:56;96.70;;;88.20;;
20635;SDS011;10477;43.198;27.916;2022-08-21T03:54:24;95.03;;;86.63;;
20635;SDS011;10477;43.198;27.916;2022-08-21T03:56:52;95.92;;;87.33;;
20635;SDS011;10477;43.198;27.916;2022-08-21T03:59:20;92.40;;;84.40;;
20635;SDS011;10477;43.198;27.916;2022-08-21T04:01:51;93.70;;;85.75;;
20635;SDS011;10477;43.198;27.916;2022-08-21T04:04:21;98.33;;;90.28;;
20635;SDS011;10477;43.198;27.916;2022-08-21T04:06:50;99.52;;;91.55;;
20635;SDS011;10477;43.198;27.916;2022-08-21T04:09:18;100.78;;;92.82;;
20635;SDS011;10477;43.198;27.916;2022-08-21T04:11:46;101.30;;;93.50;;
20635;SDS011;10477;43.198;27.916;2022-08-21T04:14:14;96.87;;;89.55;;
20635;SDS011;10477;43.198;27.916;2022-08-21T04:16:42;104.20;;;96.75;;
20635;SDS011;10477;43.198;27.916;2022-08-21T04:19:11;101.62;;;94.52;;
20635;SDS011;10477;43.198;27.916;2022-08-21T04:21:40;104.43;;;97.22;;
20635;SDS011;10477;43.198;27.916;2022-08-21T04:24:09;105.40;;;98.00;;
20635;SDS011;10477;43.198;27.916;2022-08-21T04:26:38;99.20;;;92.30;;
20635;SDS011;10477;43.198;27.916;2022-08-21T04:29:06;93.80;;;87.33;;
20635;SDS011;10477;43.198;27.916;2022-08-21T04:31:34;90.53;;;84.22;;
20635;SDS011;10477;43.198;27.916;2022-08-21T04:34:05;84.58;;;78.70;;
20635;SDS011;10477;43.198;27.916;2022-08-21T04:36:33;73.70;;;68.45;;
20635;SDS011;10477;43.198;27.916;2022-08-21T04:39:01;73.83;;;68.52;;
20635;SDS011;10477;43.198;27.916;2022-08-21T04:41:28;72.03;;;66.82;;
20635;SDS011;10477;43.198;27.916;2022-08-21T04:43:56;71.15;;;66.05;;
20635;SDS011;10477;43.198;27.916;2022-08-21T04:46:25;72.17;;;67.00;;
20635;SDS011;10477;43.198;27.916;2022-08-21T04:48:52;75.83;;;70.42;;
20635;SDS011;10477;43.198;27.916;2022-08-21T04:51:24;72.58;;;67.37;;
20635;SDS011;10477;43.198;27.916;2022-08-21T04:54:27;69.35;;;64.25;;
20635;SDS011;10477;43.198;27.916;2022-08-21T04:56:37;57.38;;;53.17;;
20635;SDS011;10477;43.198;27.916;2022-08-21T04:59:17;58.17;;;53.87;;
20635;SDS011;10477;43.198;27.916;2022-08-21T05:01:42;57.33;;;53.13;;
20635;SDS011;10477;43.198;27.916;2022-08-21T05:04:14;48.75;;;45.05;;
20635;SDS011;10477;43.198;27.916;2022-08-21T05:06:44;50.40;;;46.50;;
20635;SDS011;10477;43.198;27.916;2022-08-21T05:09:14;46.48;;;42.88;;
20635;SDS011;10477;43.198;27.916;2022-08-21T05:11:44;47.98;;;44.27;;
20635;SDS011;10477;43.198;27.916;2022-08-21T05:14:14;44.85;;;41.35;;
20635;SDS011;10477;43.198;27.916;2022-08-21T05:16:42;43.17;;;39.78;;
20635;SDS011;10477;43.198;27.916;2022-08-21T05:19:10;43.05;;;39.55;;
20635;SDS011;10477;43.198;27.916;2022-08-21T05:21:40;42.38;;;38.98;;
20635;SDS011;10477;43.198;27.916;2022-08-21T05:24:09;42.38;;;39.03;;
20635;SDS011;10477;43.198;27.916;2022-08-21T05:26:37;41.65;;;38.35;;
20635;SDS011;10477;43.198;27.916;2022-08-21T05:29:05;41.65;;;38.35;;
20635;SDS011;10477;43.198;27.916;2022-08-21T05:31:34;40.20;;;36.90;;
20635;SDS011;10477;43.198;27.916;2022-08-21T05:34:01;40.70;;;37.40;;
20635;SDS011;10477;43.198;27.916;2022-08-21T05:36:31;41.20;;;37.90;;
20635;SDS011;10477;43.198;27.916;2022-08-21T05:38:58;40.85;;;37.55;;
20635;SDS011;10477;43.198;27.916;2022-08-21T05:41:26;39.65;;;36.45;;
20635;SDS011;10477;43.198;27.916;2022-08-21T05:43:54;37.80;;;34.70;;
20635;SDS011;10477;43.198;27.916;2022-08-21T05:46:21;36.20;;;33.10;;
20635;SDS011;10477;43.198;27.916;2022-08-21T05:48:49;37.50;;;34.30;;
20635;SDS011;10477;43.198;27.916;2022-08-21T05:51:18;36.10;;;32.90;;
20635;SDS011;10477;43.198;27.916;2022-08-21T05:53:46;36.98;;;33.78;;
20635;SDS011;10477;43.198;27.916;2022-08-21T05:56:13;38.60;;;35.30;;
20635;SDS011;10477;43.198;27.916;2022-08-21T05:58:41;35.75;;;32.55;;
20635;SDS011;10477;43.198;27.916;2022-08-21T06:01:09;36.50;;;33.40;;
20635;SDS011;10477;43.198;27.916;2022-08-21T06:03:39;36.10;;;33.00;;
20635;SDS011;10477;43.198;27.916;2022-08-21T06:06:08;35.75;;;32.70;;
20635;SDS011;10477;43.198;27.916;2022-08-21T06:08:36;36.17;;;33.18;;
20635;SDS011;10477;43.198;27.916;2022-08-21T06:11:04;36.63;;;33.63;;
20635;SDS011;10477;43.198;27.916;2022-08-21T06:13:34;33.08;;;30.20;;
20635;SDS011;10477;43.198;27.916;2022-08-21T06:16:07;35.88;;;32.88;;
20635;SDS011;10477;43.198;27.916;2022-08-21T06:18:37;32.83;;;29.98;;
20635;SDS011;10477;43.198;27.916;2022-08-21T06:21:07;32.90;;;30.10;;
20635;SDS011;10477;43.198;27.916;2022-08-21T06:23:37;32.83;;;30.02;;
20635;SDS011;10477;43.198;27.916;2022-08-21T06:26:05;32.40;;;29.60;;
20635;SDS011;10477;43.198;27.916;2022-08-21T06:28:34;29.55;;;27.02;;
20635;SDS011;10477;43.198;27.916;2022-08-21T06:31:11;29.55;;;26.95;;
20635;SDS011;10477;43.198;27.916;2022-08-21T06:33:40;28.50;;;26.00;;
20635;SDS011;10477;43.198;27.916;2022-08-21T06:36:08;29.00;;;26.50;;
20635;SDS011;10477;43.198;27.916;2022-08-21T06:38:36;29.20;;;26.70;;
20635;SDS011;10477;43.198;27.916;2022-08-21T06:41:05;29.07;;;26.48;;
20635;SDS011;10477;43.198;27.916;2022-08-21T06:43:34;29.40;;;26.80;;
20635;SDS011;10477;43.198;27.916;2022-08-21T06:46:02;29.05;;;26.65;;
20635;SDS011;10477;43.198;27.916;2022-08-21T06:48:30;27.65;;;25.30;;
20635;SDS011;10477;43.198;27.916;2022-08-21T06:50:59;28.95;;;26.45;;
20635;SDS011;10477;43.198;27.916;2022-08-21T06:53:29;27.75;;;25.35;;
20635;SDS011;10477;43.198;27.916;2022-08-21T06:55:56;27.85;;;25.45;;
20635;SDS011;10477;43.198;27.916;2022-08-21T06:58:24;29.23;;;26.65;;
20635;SDS011;10477;43.198;27.916;2022-08-21T07:00:52;28.75;;;26.25;;
20635;SDS011;10477;43.198;27.916;2022-08-21T07:03:26;28.02;;;25.62;;
20635;SDS011;10477;43.198;27.916;2022-08-21T07:05:53;27.40;;;25.00;;
20635;SDS011;10477;43.198;27.916;2022-08-21T07:08:22;28.23;;;25.72;;
20635;SDS011;10477;43.198;27.916;2022-08-21T07:10:51;27.13;;;24.72;;
20635;SDS011;10477;43.198;27.916;2022-08-21T07:13:21;28.00;;;25.50;;
20635;SDS011;10477;43.198;27.916;2022-08-21T07:15:49;28.20;;;25.70;;
20635;SDS011;10477;43.198;27.916;2022-08-21T07:18:17;27.90;;;25.50;;
20635;SDS011;10477;43.198;27.916;2022-08-21T07:20:45;29.63;;;26.97;;
20635;SDS011;10477;43.198;27.916;2022-08-21T07:23:33;29.23;;;26.62;;
20635;SDS011;10477;43.198;27.916;2022-08-21T07:25:50;29.42;;;26.82;;
20635;SDS011;10477;43.198;27.916;2022-08-21T07:28:17;29.93;;;27.23;;
20635;SDS011;10477;43.198;27.916;2022-08-21T07:30:49;29.67;;;27.07;;
20635;SDS011;10477;43.198;27.916;2022-08-21T07:33:19;31.85;;;29.15;;
20635;SDS011;10477;43.198;27.916;2022-08-21T07:35:48;29.07;;;26.50;;
20635;SDS011;10477;43.198;27.916;2022-08-21T07:38:15;29.10;;;26.50;;
20635;SDS011;10477;43.198;27.916;2022-08-21T07:40:45;28.38;;;25.77;;
20635;SDS011;10477;43.198;27.916;2022-08-21T07:43:13;28.80;;;26.33;;
20635;SDS011;10477;43.198;27.916;2022-08-21T07:45:43;28.87;;;26.27;;
20635;SDS011;10477;43.198;27.916;2022-08-21T07:48:12;29.15;;;26.55;;
20635;SDS011;10477;43.198;27.916;2022-08-21T07:50:39;30.15;;;27.52;;
20635;SDS011;10477;43.198;27.916;2022-08-21T07:53:09;29.27;;;26.68;;
20635;SDS011;10477;43.198;27.916;2022-08-21T07:55:37;29.05;;;26.37;;
20635;SDS011;10477;43.198;27.916;2022-08-21T07:58:04;29.48;;;26.87;;
20635;SDS011;10477;43.198;27.916;2022-08-21T08:00:32;28.00;;;25.50;;
20635;SDS011;10477;43.198;27.916;2022-08-21T08:03:00;28.87;;;26.33;;
20635;SDS011;10477;43.198;27.916;2022-08-21T08:05:28;28.20;;;25.70;;
20635;SDS011;10477;43.198;27.916;2022-08-21T08:07:58;30.20;;;27.55;;
20635;SDS011;10477;43.198;27.916;2022-08-21T08:10:26;28.57;;;26.17;;
20635;SDS011;10477;43.198;27.916;2022-08-21T08:12:54;29.23;;;26.73;;
20635;SDS011;10477;43.198;27.916;2022-08-21T08:15:22;30.70;;;28.00;;
20635;SDS011;10477;43.198;27.916;2022-08-21T08:17:51;28.70;;;26.20;;
20635;SDS011;10477;43.198;27.916;2022-08-21T08:20:21;28.62;;;26.10;;
20635;SDS011;10477;43.198;27.916;2022-08-21T08:22:52;29.77;;;27.17;;
20635;SDS011;10477;43.198;27.916;2022-08-21T08:25:21;29.32;;;26.82;;
20635;SDS011;10477;43.198;27.916;2022-08-21T08:27:50;30.23;;;27.50;;
20635;SDS011;10477;43.198;27.916;2022-08-21T08:30:18;26.73;;;24.43;;
20635;SDS011;10477;43.198;27.916;2022-08-21T08:32:49;27.30;;;24.80;;
20635;SDS011;10477;43.198;27.916;2022-08-21T08:35:17;27.30;;;24.80;;
20635;SDS011;10477;43.198;27.916;2022-08-21T08:37:45;27.13;;;24.72;;
20635;SDS011;10477;43.198;27.916;2022-08-21T08:40:14;27.50;;;25.10;;
20635;SDS011;10477;43.198;27.916;2022-08-21T08:42:47;26.90;;;24.50;;
20635;SDS011;10477;43.198;27.916;2022-08-21T08:45:18;26.75;;;24.35;;
20635;SDS011;10477;43.198;27.916;2022-08-21T08:47:49;27.65;;;25.17;;
20635;SDS011;10477;43.198;27.916;2022-08-21T08:50:33;26.60;;;24.30;;
20635;SDS011;10477;43.198;27.916;2022-08-21T08:53:07;26.87;;;24.47;;
20635;SDS011;10477;43.198;27.916;2022-08-21T08:55:52;27.77;;;25.27;;
20635;SDS011;10477;43.198;27.916;2022-08-21T08:58:26;29.10;;;26.60;;
20635;SDS011;10477;43.198;27.916;2022-08-21T09:00:58;28.10;;;25.80;;
20635;SDS011;10477;43.198;27.916;2022-08-21T09:03:27;27.45;;;25.05;;
20635;SDS011;10477;43.198;27.916;2022-08-21T09:06:01;29.57;;;27.07;;
20635;SDS011;10477;43.198;27.916;2022-08-21T09:08:41;29.23;;;26.73;;
20635;SDS011;10477;43.198;27.916;2022-08-21T09:11:37;28.90;;;26.40;;
20635;SDS011;10477;43.198;27.916;2022-08-21T09:20:37;30.10;;;27.58;;
20635;SDS011;10477;43.198;27.916;2022-08-21T09:28:24;29.27;;;26.87;;
20635;SDS011;10477;43.198;27.916;2022-08-21T09:30:54;30.00;;;27.60;;
20635;SDS011;10477;43.198;27.916;2022-08-21T09:33:23;31.02;;;28.42;;
20635;SDS011;10477;43.198;27.916;2022-08-21T09:35:52;31.62;;;29.12;;
20635;SDS011;10477;43.198;27.916;2022-08-21T09:38:30;30.72;;;28.32;;
20635;SDS011;10477;43.198;27.916;2022-08-21T09:41:06;30.95;;;28.47;;
20635;SDS011;10477;43.198;27.916;2022-08-21T09:43:34;30.37;;;27.98;;
20635;SDS011;10477;43.198;27.916;2022-08-21T09:46:11;29.92;;;27.52;;
20635;SDS011;10477;43.198;27.916;2022-08-21T09:48:41;30.60;;;28.10;;
20635;SDS011;10477;43.198;27.916;2022-08-21T09:51:20;29.23;;;26.65;;
20635;SDS011;10477;43.198;27.916;2022-08-21T09:53:45;29.40;;;27.00;;
20635;SDS011;10477;43.198;27.916;2022-08-21T09:56:19;29.95;;;27.55;;
20635;SDS011;10477;43.198;27.916;2022-08-21T09:59:19;30.95;;;28.35;;
20635;SDS011;10477;43.198;27.916;2022-08-21T10:01:45;29.82;;;27.20;;
20635;SDS011;10477;43.198;27.916;2022-08-21T10:04:15;28.60;;;26.20;;
20635;SDS011;10477;43.198;27.916;2022-08-21T10:06:48;29.55;;;27.10;;
20635;SDS011;10477;43.198;27.916;2022-08-21T10:09:17;29.00;;;26.40;;
20635;SDS011;10477;43.198;27.916;2022-08-21T10:11:52;29.63;;;27.20;;
20635;SDS011;10477;43.198;27.916;2022-08-21T10:24:55;30.88;;;28.38;;
20635;SDS011;10477;43.198;27.916;2022-08-21T10:27:40;31.17;;;28.57;;
20635;SDS011;10477;43.198;27.916;2022-08-21T10:30:16;30.82;;;28.32;;
20635;SDS011;10477;43.198;27.916;2022-08-21T10:35:26;29.75;;;27.25;;
20635;SDS011;10477;43.198;27.916;2022-08-21T10:41:21;28.52;;;26.10;;
20635;SDS011;10477;43.198;27.916;2022-08-21T10:44:04;28.50;;;25.97;;
20635;SDS011;10477;43.198;27.916;2022-08-21T10:55:08;30.75;;;28.10;;
20635;SDS011;10477;43.198;27.916;2022-08-21T11:00:16;32.85;;;30.05;;
20635;SDS011;10477;43.198;27.916;2022-08-21T11:05:38;30.65;;;28.10;;
20635;SDS011;10477;43.198;27.916;2022-08-21T11:08:02;29.37;;;26.87;;
20635;SDS011;10477;43.198;27.916;2022-08-21T11:10:40;29.52;;;27.00;;
20635;SDS011;10477;43.198;27.916;2022-08-21T11:13:11;28.45;;;25.95;;
20635;SDS011;10477;43.198;27.916;2022-08-21T11:15:45;30.52;;;27.73;;
20635;SDS011;10477;43.198;27.916;2022-08-21T11:23:57;29.00;;;26.50;;
20635;SDS011;10477;43.198;27.916;2022-08-21T11:29:04;29.20;;;26.70;;
20635;SDS011;10477;43.198;27.916;2022-08-21T11:31:38;31.85;;;29.05;;
20635;SDS011;10477;43.198;27.916;2022-08-21T11:34:24;28.60;;;26.10;;
20635;SDS011;10477;43.198;27.916;2022-08-21T11:39:56;30.40;;;27.85;;
20635;SDS011;10477;43.198;27.916;2022-08-21T11:45:23;30.02;;;27.52;;
20635;SDS011;10477;43.198;27.916;2022-08-21T11:50:51;31.00;;;28.30;;
20635;SDS011;10477;43.198;27.916;2022-08-21T11:53:26;29.55;;;27.05;;
20635;SDS011;10477;43.198;27.916;2022-08-21T11:55:57;37.88;;;34.23;;
20635;SDS011;10477;43.198;27.916;2022-08-21T12:01:22;29.15;;;26.65;;
20635;SDS011;10477;43.198;27.916;2022-08-21T12:04:00;29.35;;;26.75;;
20635;SDS011;10477;43.198;27.916;2022-08-21T12:06:33;29.82;;;27.02;;
20635;SDS011;10477;43.198;27.916;2022-08-21T12:09:06;28.85;;;26.35;;
20635;SDS011;10477;43.198;27.916;2022-08-21T12:11:49;29.18;;;26.65;;
20635;SDS011;10477;43.198;27.916;2022-08-21T12:14:18;30.57;;;27.85;;
20635;SDS011;10477;43.198;27.916;2022-08-21T12:16:47;29.20;;;26.62;;
20635;SDS011;10477;43.198;27.916;2022-08-21T12:29:47;31.30;;;28.42;;
20635;SDS011;10477;43.198;27.916;2022-08-21T12:32:22;30.55;;;27.85;;
20635;SDS011;10477;43.198;27.916;2022-08-21T12:37:34;30.05;;;27.45;;
20635;SDS011;10477;43.198;27.916;2022-08-21T12:40:10;31.85;;;29.15;;
20635;SDS011;10477;43.198;27.916;2022-08-21T12:42:52;30.95;;;28.25;;
20635;SDS011;10477;43.198;27.916;2022-08-21T12:45:28;30.27;;;27.75;;
20635;SDS011;10477;43.198;27.916;2022-08-21T12:47:58;31.55;;;28.75;;
20635;SDS011;10477;43.198;27.916;2022-08-21T12:50:46;30.48;;;27.87;;
20635;SDS011;10477;43.198;27.916;2022-08-21T12:53:12;30.15;;;27.55;;
20635;SDS011;10477;43.198;27.916;2022-08-21T12:55:43;30.17;;;27.58;;
20635;SDS011;10477;43.198;27.916;2022-08-21T12:58:23;30.75;;;28.15;;
20635;SDS011;10477;43.198;27.916;2022-08-21T13:01:05;31.40;;;28.70;;
20635;SDS011;10477;43.198;27.916;2022-08-21T13:03:34;29.55;;;26.97;;
20635;SDS011;10477;43.198;27.916;2022-08-21T13:06:05;37.40;;;34.50;;
20635;SDS011;10477;43.198;27.916;2022-08-21T13:08:35;39.42;;;36.53;;
20635;SDS011;10477;43.198;27.916;2022-08-21T13:11:04;40.50;;;37.60;;
20635;SDS011;10477;43.198;27.916;2022-08-21T13:13:32;42.13;;;39.03;;
20635;SDS011;10477;43.198;27.916;2022-08-21T13:16:06;40.65;;;37.75;;
20635;SDS011;10477;43.198;27.916;2022-08-21T13:18:35;39.45;;;36.65;;
20635;SDS011;10477;43.198;27.916;2022-08-21T13:21:14;40.12;;;37.23;;
20635;SDS011;10477;43.198;27.916;2022-08-21T13:23:41;39.85;;;36.95;;
20635;SDS011;10477;43.198;27.916;2022-08-21T13:26:19;36.42;;;33.73;;
20635;SDS011;10477;43.198;27.916;2022-08-21T13:28:48;35.38;;;32.78;;
20635;SDS011;10477;43.198;27.916;2022-08-21T13:31:18;35.17;;;32.58;;
20635;SDS011;10477;43.198;27.916;2022-08-21T13:33:47;36.42;;;33.73;;
20635;SDS011;10477;43.198;27.916;2022-08-21T13:36:17;33.55;;;30.95;;
20635;SDS011;10477;43.198;27.916;2022-08-21T13:38:46;33.50;;;31.00;;
20635;SDS011;10477;43.198;27.916;2022-08-21T13:43:58;34.92;;;32.23;;
20635;SDS011;10477;43.198;27.916;2022-08-21T13:46:29;33.50;;;30.80;;
20635;SDS011;10477;43.198;27.916;2022-08-21T13:49:01;32.58;;;29.98;;
20635;SDS011;10477;43.198;27.916;2022-08-21T13:51:31;35.10;;;32.40;;
20635;SDS011;10477;43.198;27.916;2022-08-21T13:54:00;32.90;;;30.30;;
20635;SDS011;10477;43.198;27.916;2022-08-21T13:56:43;37.53;;;34.73;;
20635;SDS011;10477;43.198;27.916;2022-08-21T13:59:22;33.50;;;30.90;;
20635;SDS011;10477;43.198;27.916;2022-08-21T14:01:57;33.70;;;31.20;;
20635;SDS011;10477;43.198;27.916;2022-08-21T14:04:30;33.80;;;31.10;;
20635;SDS011;10477;43.198;27.916;2022-08-21T14:06:54;35.17;;;32.42;;
20635;SDS011;10477;43.198;27.916;2022-08-21T14:12:11;36.65;;;33.75;;
20635;SDS011;10477;43.198;27.916;2022-08-21T14:14:52;33.20;;;30.60;;
20635;SDS011;10477;43.198;27.916;2022-08-21T14:17:29;39.03;;;35.73;;
20635;SDS011;10477;43.198;27.916;2022-08-21T14:19:58;31.82;;;29.32;;
20635;SDS011;10477;43.198;27.916;2022-08-21T14:22:30;34.85;;;32.15;;
20635;SDS011;10477;43.198;27.916;2022-08-21T14:25:08;32.63;;;29.92;;
20635;SDS011;10477;43.198;27.916;2022-08-21T14:27:38;33.80;;;30.65;;
20635;SDS011;10477;43.198;27.916;2022-08-21T14:30:12;34.20;;;31.60;;
20635;SDS011;10477;43.198;27.916;2022-08-21T14:32:41;34.40;;;31.80;;
20635;SDS011;10477;43.198;27.916;2022-08-21T14:35:09;33.58;;;30.88;;
20635;SDS011;10477;43.198;27.916;2022-08-21T14:37:41;34.73;;;32.00;;
20635;SDS011;10477;43.198;27.916;2022-08-21T14:40:11;38.33;;;35.08;;
20635;SDS011;10477;43.198;27.916;2022-08-21T14:42:40;34.53;;;31.80;;
20635;SDS011;10477;43.198;27.916;2022-08-21T14:45:28;35.83;;;33.00;;
20635;SDS011;10477;43.198;27.916;2022-08-21T14:47:57;34.88;;;31.87;;
20635;SDS011;10477;43.198;27.916;2022-08-21T14:50:25;49.95;;;46.48;;
20635;SDS011;10477;43.198;27.916;2022-08-21T14:52:53;36.95;;;34.05;;
20635;SDS011;10477;43.198;27.916;2022-08-21T14:55:22;32.95;;;30.25;;
20635;SDS011;10477;43.198;27.916;2022-08-21T14:57:50;32.48;;;29.77;;
20635;SDS011;10477;43.198;27.916;2022-08-21T15:00:20;36.73;;;33.80;;
20635;SDS011;10477;43.198;27.916;2022-08-21T15:02:50;35.78;;;32.65;;
20635;SDS011;10477;43.198;27.916;2022-08-21T15:05:18;31.20;;;28.50;;
20635;SDS011;10477;43.198;27.916;2022-08-21T15:07:46;43.20;;;40.00;;
20635;SDS011;10477;43.198;27.916;2022-08-21T15:10:14;34.38;;;31.35;;
20635;SDS011;10477;43.198;27.916;2022-08-21T15:12:41;32.65;;;29.95;;
20635;SDS011;10477;43.198;27.916;2022-08-21T15:15:10;34.67;;;31.77;;
20635;SDS011;10477;43.198;27.916;2022-08-21T15:17:37;34.92;;;32.03;;
20635;SDS011;10477;43.198;27.916;2022-08-21T15:20:05;34.73;;;31.90;;
20635;SDS011;10477;43.198;27.916;2022-08-21T15:22:34;33.70;;;30.90;;
20635;SDS011;10477;43.198;27.916;2022-08-21T15:25:02;33.25;;;30.55;;
20635;SDS011;10477;43.198;27.916;2022-08-21T15:27:30;33.85;;;31.20;;
20635;SDS011;10477;43.198;27.916;2022-08-21T15:29:58;36.58;;;33.48;;
20635;SDS011;10477;43.198;27.916;2022-08-21T15:32:26;35.13;;;32.13;;
20635;SDS011;10477;43.198;27.916;2022-08-21T15:34:58;37.48;;;34.48;;
20635;SDS011;10477;43.198;27.916;2022-08-21T15:37:25;37.63;;;34.43;;
20635;SDS011;10477;43.198;27.916;2022-08-21T15:39:54;41.20;;;37.83;;
20635;SDS011;10477;43.198;27.916;2022-08-21T15:42:22;43.28;;;39.33;;
20635;SDS011;10477;43.198;27.916;2022-08-21T15:44:53;42.48;;;39.08;;
20635;SDS011;10477;43.198;27.916;2022-08-21T15:47:24;41.18;;;37.67;;
20635;SDS011;10477;43.198;27.916;2022-08-21T15:49:53;52.65;;;48.63;;